Terminal Aerodrome Forecast
Issued by NWS Twin Cities, MN

Home | Current Version | Previous Version | Graphics & Text | Print | Product List | Glossary On
Versions: 1 2 3 4 5 6 7 8 9 10 11 12 13 14 15 16
000
FTUS43 KMPX 201120
TAFSTC
TAF
KSTC 201120Z 2012/2112 01007KT 6SM -DZ BR OVC008
      TEMPO 2013/2016 2SM -DZ BR
     FM201600 35009KT P6SM VCSH OVC008
     FM201800 34010G18KT P6SM SCT008 OVC012
     FM202100 34010KT P6SM OVC025
     FM210200 33005KT P6SM BKN050=

USA.gov is the U.S. government's official web portal to all federal, state and local government web resources and services.